createdAt,value
2022-11-26T00:01:21.844Z,58.43
2022-11-26T00:03:49.937Z,58.61
2022-11-26T00:06:30.042Z,58.76
2022-11-26T00:08:57.024Z,58.35
2022-11-26T00:11:24.244Z,58.73
2022-11-26T00:13:51.113Z,58.85
2022-11-26T00:16:18.133Z,59.12
2022-11-26T00:18:45.114Z,59.15
2022-11-26T00:21:21.856Z,58.75
2022-11-26T00:23:49.334Z,58.69
2022-11-26T00:26:19.573Z,59.06
2022-11-26T00:29:02.415Z,59.10
2022-11-26T00:31:29.939Z,58.59
2022-11-26T00:33:57.314Z,58.65
2022-11-26T00:36:27.692Z,58.76
2022-11-26T00:39:04.333Z,59.02
2022-11-26T00:41:34.237Z,59.16
2022-11-26T00:44:01.913Z,59.07
2022-11-26T00:46:29.034Z,59.01
2022-11-26T00:48:56.294Z,58.70
2022-11-26T00:51:26.115Z,58.71
2022-11-26T00:53:55.955Z,58.99
2022-11-26T00:56:23.773Z,58.84
2022-11-26T00:58:51.479Z,59.07
2022-11-26T01:01:22.438Z,59.32
2022-11-26T01:03:49.753Z,59.07
2022-11-26T01:06:22.835Z,58.74
2022-11-26T01:08:50.915Z,58.82
2022-11-26T01:11:21.133Z,59.16
2022-11-26T01:13:50.059Z,59.15
2022-11-26T01:16:24.771Z,59.26
2022-11-26T01:18:54.054Z,59.44
2022-11-26T01:21:22.414Z,59.03
2022-11-26T01:23:49.261Z,59.71
2022-11-26T01:26:25.514Z,59.81
2022-11-26T01:28:52.605Z,59.95
2022-11-26T01:31:25.673Z,59.85
2022-11-26T01:33:53.315Z,59.88
2022-11-26T01:36:30.854Z,60.20
2022-11-26T01:39:13.834Z,60.16
2022-11-26T01:42:03.253Z,60.33
2022-11-26T01:44:33.734Z,59.90
2022-11-26T01:47:01.434Z,59.47
2022-11-26T01:49:34.732Z,59.42
2022-11-26T01:52:04.754Z,59.62
2022-11-26T01:54:35.317Z,59.25
2022-11-26T01:57:30.307Z,59.75
2022-11-26T02:00:01.715Z,59.49
2022-11-26T02:02:40.669Z,59.67
2022-11-26T02:05:31.878Z,59.67
2022-11-26T02:07:59.414Z,59.82
2022-11-26T02:10:26.414Z,59.61
2022-11-26T02:12:53.573Z,60.20
2022-11-26T02:15:23.616Z,60.24
2022-11-26T02:17:58.114Z,60.53
2022-11-26T02:20:37.318Z,60.84
2022-11-26T02:23:25.996Z,60.57
2022-11-26T02:26:26.495Z,60.49
2022-11-26T02:29:17.996Z,60.31
2022-11-26T02:32:14.076Z,60.15
2022-11-26T02:34:49.333Z,60.67
2022-11-26T02:37:28.853Z,61.28
2022-11-26T02:39:57.560Z,61.25
2022-11-26T02:42:32.127Z,61.02
2022-11-26T02:45:22.514Z,61.00
2022-11-26T02:47:52.821Z,60.86
2022-11-26T02:50:25.917Z,61.38
2022-11-26T02:52:57.434Z,61.12
2022-11-26T02:55:29.293Z,61.25
2022-11-26T02:57:57.852Z,60.96
2022-11-26T03:00:25.442Z,60.88
2022-11-26T03:03:00.553Z,60.92
2022-11-26T03:05:31.273Z,61.04
2022-11-26T03:08:00.029Z,61.52
2022-11-26T03:10:29.395Z,61.06
2022-11-26T03:12:56.453Z,61.08
2022-11-26T03:15:23.495Z,61.47
2022-11-26T03:17:51.914Z,61.37
2022-11-26T03:20:19.376Z,61.42
2022-11-26T03:22:46.533Z,61.49
2022-11-26T03:25:13.615Z,61.55
2022-11-26T03:27:40.734Z,61.24
2022-11-26T03:30:08.515Z,61.59
2022-11-26T03:32:35.934Z,61.60
2022-11-26T03:35:03.393Z,61.84
2022-11-26T03:37:30.481Z,61.86
2022-11-26T03:39:57.457Z,61.29
2022-11-26T03:42:24.736Z,61.46
2022-11-26T03:44:51.753Z,61.61
2022-11-26T03:47:18.781Z,61.62
2022-11-26T03:49:45.814Z,61.54
2022-11-26T03:52:13.321Z,61.40
2022-11-26T03:54:40.659Z,61.19
2022-11-26T03:57:08.237Z,61.53
2022-11-26T03:59:35.257Z,61.64
2022-11-26T04:02:02.394Z,61.81
2022-11-26T04:04:29.655Z,61.32
2022-11-26T04:06:56.766Z,61.82
2022-11-26T04:09:23.954Z,61.79
2022-11-26T04:11:50.975Z,61.77
2022-11-26T04:14:18.015Z,61.71
2022-11-26T04:16:45.145Z,61.52
2022-11-26T04:19:12.255Z,61.45
2022-11-26T04:21:39.215Z,61.50
2022-11-26T04:24:07.294Z,62.07
2022-11-26T04:26:34.474Z,61.78
2022-11-26T04:29:01.494Z,61.88
2022-11-26T04:31:28.585Z,61.75
2022-11-26T04:33:55.652Z,61.71
2022-11-26T04:36:22.674Z,61.84
2022-11-26T04:38:49.694Z,62.11
2022-11-26T04:41:16.714Z,61.87
2022-11-26T04:43:43.677Z,61.82
2022-11-26T04:46:10.709Z,62.17
2022-11-26T04:48:37.755Z,62.21
2022-11-26T04:51:04.896Z,62.26
2022-11-26T04:53:31.935Z,61.94
2022-11-26T04:55:59.039Z,62.12
2022-11-26T04:58:26.095Z,62.50
2022-11-26T05:00:53.510Z,62.53
2022-11-26T05:03:20.715Z,61.98
2022-11-26T05:05:47.911Z,62.51
2022-11-26T05:08:15.315Z,62.78
2022-11-26T05:10:42.375Z,62.38
2022-11-26T05:13:09.615Z,62.64
2022-11-26T05:15:36.590Z,62.59
2022-11-26T05:18:04.002Z,62.63
2022-11-26T05:20:31.564Z,62.73
2022-11-26T05:22:58.570Z,62.58
2022-11-26T05:25:25.499Z,62.66
2022-11-26T05:27:52.483Z,62.93
2022-11-26T05:30:19.471Z,63.06
2022-11-26T05:32:46.815Z,61.92
2022-11-26T05:35:13.902Z,63.02
2022-11-26T05:37:40.884Z,63.12
2022-11-26T05:40:08.979Z,63.22
2022-11-26T05:42:36.559Z,62.38
2022-11-26T05:45:04.919Z,62.15
2022-11-26T05:47:31.940Z,62.59
2022-11-26T05:49:58.970Z,62.44
2022-11-26T05:52:26.108Z,62.50
2022-11-26T05:54:53.094Z,62.37
2022-11-26T05:57:20.411Z,62.38
2022-11-26T05:59:49.351Z,62.41
2022-11-26T06:02:16.530Z,61.97
2022-11-26T06:04:43.664Z,61.71
2022-11-26T06:07:10.820Z,61.86
2022-11-26T06:09:37.978Z,61.58
2022-11-26T06:12:05.469Z,61.47
2022-11-26T06:14:32.724Z,61.23
2022-11-26T06:16:59.717Z,61.15
2022-11-26T06:19:26.803Z,61.22
2022-11-26T06:21:53.926Z,61.08
2022-11-26T06:24:20.842Z,60.56
2022-11-26T06:26:47.923Z,60.68
2022-11-26T06:29:14.856Z,60.71
2022-11-26T06:31:41.854Z,61.14
2022-11-26T06:34:08.908Z,60.88
2022-11-26T06:36:36.040Z,61.45
2022-11-26T06:39:03.698Z,61.18
2022-11-26T06:41:30.619Z,61.48
2022-11-26T06:43:59.506Z,61.60
2022-11-26T06:46:26.541Z,61.93
2022-11-26T06:48:53.508Z,61.43
2022-11-26T06:51:27.917Z,61.30
2022-11-26T06:53:55.051Z,61.84
2022-11-26T06:56:22.209Z,61.59
2022-11-26T06:58:50.045Z,61.44
2022-11-26T07:01:26.442Z,61.75
2022-11-26T07:03:53.901Z,61.76
2022-11-26T07:06:25.320Z,61.78
2022-11-26T07:08:53.990Z,61.84
2022-11-26T07:11:22.041Z,62.01
2022-11-26T07:13:49.572Z,62.02
2022-11-26T07:16:16.954Z,61.75
2022-11-26T07:18:49.178Z,61.75
2022-11-26T07:21:16.447Z,61.75
2022-11-26T07:23:43.518Z,61.51
2022-11-26T07:26:12.017Z,61.42
2022-11-26T07:28:39.683Z,61.30
2022-11-26T07:31:14.677Z,61.58
2022-11-26T07:33:44.330Z,62.13
2022-11-26T07:36:23.259Z,61.75
2022-11-26T07:38:50.837Z,61.80
2022-11-26T07:41:19.717Z,61.42
2022-11-26T07:43:47.243Z,61.10
2022-11-26T07:46:16.568Z,61.26
2022-11-26T07:48:44.198Z,61.12
2022-11-26T07:51:21.340Z,60.83
2022-11-26T07:53:49.488Z,60.94
2022-11-26T07:56:16.707Z,61.09
2022-11-26T07:58:43.891Z,61.10
2022-11-26T08:01:13.434Z,60.76
2022-11-26T08:03:43.038Z,61.03
2022-11-26T08:06:12.277Z,60.63
2022-11-26T08:08:39.746Z,60.70
2022-11-26T08:11:22.658Z,61.00
2022-11-26T08:13:53.509Z,61.07
2022-11-26T08:16:20.568Z,60.67
2022-11-26T08:18:47.547Z,60.85
2022-11-26T08:21:14.503Z,60.47
2022-11-26T08:23:41.618Z,60.59
2022-11-26T08:26:23.853Z,60.14
2022-11-26T08:28:52.821Z,60.08
2022-11-26T08:31:20.551Z,60.00
2022-11-26T08:33:47.627Z,58.88
2022-11-26T08:36:14.687Z,59.02
2022-11-26T08:38:41.926Z,58.68
2022-11-26T08:41:12.426Z,58.62
2022-11-26T08:44:05.003Z,59.46
2022-11-26T08:46:27.368Z,59.33
2022-11-26T08:48:57.612Z,58.90
2022-11-26T08:51:25.717Z,59.17
2022-11-26T08:53:53.467Z,59.20
2022-11-26T08:56:20.378Z,59.60
2022-11-26T08:58:49.263Z,59.76
2022-11-26T09:01:17.864Z,59.42
2022-11-26T09:03:47.498Z,59.75
2022-11-26T09:06:14.529Z,59.87
2022-11-26T09:09:00.187Z,59.90
2022-11-26T09:11:27.927Z,59.70
2022-11-26T09:13:55.568Z,59.34
2022-11-26T09:16:23.183Z,59.04
2022-11-26T09:18:51.167Z,58.04
2022-11-26T09:21:19.005Z,56.87
2022-11-26T09:23:45.986Z,55.69
2022-11-26T09:26:13.097Z,55.02
2022-11-26T09:28:40.108Z,55.08
2022-11-26T09:31:07.428Z,54.86
2022-11-26T09:33:34.429Z,54.95
2022-11-26T09:36:06.462Z,53.82
2022-11-26T09:38:34.660Z,53.24
2022-11-26T09:41:19.756Z,53.69
2022-11-26T09:44:18.227Z,54.08
2022-11-26T09:47:09.958Z,53.61
2022-11-26T09:49:38.380Z,52.13
2022-11-26T09:52:08.653Z,51.94
2022-11-26T09:54:39.683Z,51.76
2022-11-26T09:57:20.376Z,51.68
2022-11-26T09:59:49.779Z,51.57
2022-11-26T10:02:16.857Z,51.82
2022-11-26T10:04:44.138Z,51.71
2022-11-26T10:07:36.205Z,52.10
2022-11-26T10:10:16.432Z,52.00
2022-11-26T10:13:19.815Z,51.48
2022-11-26T10:15:50.668Z,51.65
2022-11-26T10:18:55.165Z,51.45
2022-11-26T10:21:57.209Z,51.46
2022-11-26T10:24:33.238Z,51.80
2022-11-26T10:27:05.268Z,51.59
2022-11-26T10:29:46.521Z,51.52
2022-11-26T10:32:13.407Z,51.09
2022-11-26T10:34:50.862Z,50.99
2022-11-26T10:37:19.774Z,51.16
2022-11-26T10:39:46.788Z,51.43
2022-11-26T10:42:21.470Z,51.70
2022-11-26T10:44:52.950Z,51.46
2022-11-26T10:47:23.905Z,51.25
2022-11-26T10:49:53.119Z,51.35
2022-11-26T10:52:28.727Z,51.10
2022-11-26T10:55:18.807Z,50.62
2022-11-26T10:57:51.921Z,50.78
2022-11-26T11:00:39.056Z,51.80
2022-11-26T11:03:38.589Z,50.91
2022-11-26T11:06:34.346Z,49.89
2022-11-26T11:09:12.477Z,48.39
2022-11-26T11:11:39.539Z,48.28
2022-11-26T11:14:16.668Z,47.66
2022-11-26T11:16:46.367Z,47.24
2022-11-26T11:19:26.459Z,47.54
2022-11-26T11:21:54.240Z,47.66
2022-11-26T11:24:27.448Z,47.31
2022-11-26T11:27:00.579Z,46.77
2022-11-26T11:29:30.135Z,46.47
2022-11-26T11:31:57.979Z,46.61
2022-11-26T11:34:33.087Z,46.48
2022-11-26T11:37:03.238Z,46.08
2022-11-26T11:39:34.910Z,45.67
2022-11-26T11:42:04.823Z,45.88
2022-11-26T11:44:44.608Z,45.49
2022-11-26T11:47:14.822Z,45.93
2022-11-26T11:49:58.749Z,45.88
2022-11-26T11:53:04.644Z,45.89
2022-11-26T11:56:02.503Z,46.36
2022-11-26T11:58:32.559Z,45.74
2022-11-26T12:13:24.749Z,40.82
2022-11-26T12:16:06.285Z,38.54
2022-11-26T12:18:42.158Z,35.31
2022-11-26T12:21:13.260Z,34.24
2022-11-26T12:23:53.376Z,31.91
2022-11-26T12:26:48.767Z,30.03
2022-11-26T12:29:24.253Z,29.29
2022-11-26T12:32:05.413Z,28.88
2022-11-26T12:34:39.484Z,27.87
2022-11-26T12:37:25.321Z,26.12
2022-11-26T12:40:04.543Z,25.81
2022-11-26T12:42:42.361Z,24.66
2022-11-26T12:45:22.810Z,23.60
2022-11-26T12:47:57.640Z,22.76
2022-11-26T12:50:48.291Z,21.79
2022-11-26T12:53:30.394Z,20.56
2022-11-26T12:56:06.667Z,21.22
2022-11-26T12:58:39.580Z,21.26
2022-11-26T13:01:08.120Z,21.46
2022-11-26T13:03:35.099Z,22.78
2022-11-26T13:06:08.121Z,23.60
2022-11-26T13:08:56.106Z,25.49
2022-11-26T13:11:44.898Z,27.02
2022-11-26T13:14:27.346Z,27.63
2022-11-26T13:17:09.726Z,28.88
2022-11-26T13:19:51.156Z,29.78
2022-11-26T13:22:37.217Z,29.57
2022-11-26T13:25:35.144Z,30.27
2022-11-26T13:28:07.845Z,30.41
2022-11-26T13:30:57.131Z,30.05
2022-11-26T13:33:36.731Z,30.77
2022-11-26T13:36:29.599Z,31.53
2022-11-26T13:39:24.250Z,31.73
2022-11-26T13:42:00.159Z,32.93
2022-11-26T13:44:41.040Z,32.64
2022-11-26T13:47:18.621Z,32.53
2022-11-26T13:50:03.659Z,33.49
2022-11-26T13:52:36.666Z,33.80
2022-11-26T13:55:09.463Z,34.38
2022-11-26T13:57:44.363Z,34.51
2022-11-26T14:00:12.126Z,35.12
2022-11-26T14:02:42.844Z,35.02
2022-11-26T14:05:16.338Z,35.77
2022-11-26T14:07:45.834Z,35.01
2022-11-26T14:10:41.662Z,34.92
2022-11-26T14:13:11.288Z,35.65
2022-11-26T14:15:40.994Z,35.88
2022-11-26T14:18:09.677Z,35.74
2022-11-26T14:20:57.740Z,36.38
2022-11-26T14:23:43.835Z,36.60
2022-11-26T14:26:37.901Z,36.18
2022-11-26T14:29:07.901Z,36.52
2022-11-26T14:31:38.631Z,36.74
2022-11-26T14:34:14.449Z,37.36
2022-11-26T14:36:53.442Z,37.36
2022-11-26T14:39:20.510Z,38.30
2022-11-26T14:41:47.557Z,38.19
2022-11-26T14:44:17.010Z,38.18
2022-11-26T14:46:48.604Z,38.62
2022-11-26T14:49:29.357Z,38.94
2022-11-26T14:51:57.397Z,38.79
2022-11-26T14:54:38.596Z,39.22
2022-11-26T14:57:15.041Z,38.53
2022-11-26T15:00:04.137Z,39.71
2022-11-26T15:02:32.033Z,40.26
2022-11-26T15:05:04.629Z,40.23
2022-11-26T15:07:32.314Z,40.44
2022-11-26T15:10:27.746Z,40.76
2022-11-26T15:12:59.139Z,40.45
2022-11-26T15:15:26.209Z,41.00
2022-11-26T15:18:01.171Z,40.72
2022-11-26T15:20:28.495Z,41.74
2022-11-26T15:22:59.697Z,41.99
2022-11-26T15:25:33.299Z,41.97
2022-11-26T15:28:05.297Z,41.90
2022-11-26T15:30:37.539Z,42.25
2022-11-26T15:33:13.969Z,42.27
2022-11-26T15:35:41.637Z,42.88
2022-11-26T15:38:18.551Z,43.46
2022-11-26T15:40:48.577Z,43.57
2022-11-26T15:43:23.975Z,43.80
2022-11-26T15:45:53.962Z,43.82
2022-11-26T15:48:50.401Z,44.47
2022-11-26T15:51:35.514Z,44.85
2022-11-26T15:54:06.181Z,45.31
2022-11-26T15:56:37.944Z,45.77
2022-11-26T15:59:15.777Z,45.92
2022-11-26T16:01:46.323Z,46.17
2022-11-26T16:04:38.325Z,47.20
2022-11-26T16:07:11.071Z,47.20
2022-11-26T16:09:38.068Z,47.00
2022-11-26T16:12:05.246Z,47.27
2022-11-26T16:14:35.293Z,48.06
2022-11-26T16:17:17.289Z,48.17
2022-11-26T16:19:59.407Z,48.59
2022-11-26T16:22:32.663Z,49.11
2022-11-26T16:25:18.942Z,49.16
2022-11-26T16:28:02.819Z,49.29
2022-11-26T16:30:29.837Z,49.40
2022-11-26T16:32:57.000Z,49.79
2022-11-26T16:38:26.174Z,49.81
2022-11-26T16:40:54.444Z,49.57
2022-11-26T16:43:21.280Z,49.83
2022-11-26T16:45:49.700Z,49.69
2022-11-26T16:48:24.382Z,49.82
2022-11-26T16:50:52.551Z,49.52
2022-11-26T16:53:19.538Z,50.14
2022-11-26T16:55:47.211Z,50.55
2022-11-26T16:58:26.008Z,50.41
2022-11-26T17:00:53.719Z,50.62
2022-11-26T17:03:22.969Z,50.59
2022-11-26T17:05:54.330Z,50.40
2022-11-26T17:08:21.590Z,50.63
2022-11-26T17:10:48.659Z,50.44
2022-11-26T17:13:15.997Z,50.76
2022-11-26T17:15:44.194Z,51.17
2022-11-26T17:18:19.314Z,50.85
2022-11-26T17:20:46.818Z,51.40
2022-11-26T17:23:14.252Z,50.96
2022-11-26T17:25:43.309Z,50.96
2022-11-26T17:28:14.598Z,51.22
2022-11-26T17:30:43.673Z,51.31
2022-11-26T17:33:11.356Z,51.34
2022-11-26T17:35:38.609Z,51.80
2022-11-26T17:38:15.881Z,51.79
2022-11-26T17:40:44.090Z,51.64
2022-11-26T17:43:11.097Z,52.00
2022-11-26T17:45:39.669Z,52.03
2022-11-26T17:48:10.128Z,52.00
2022-11-26T17:50:37.114Z,52.02
2022-11-26T17:53:04.131Z,51.93
2022-11-26T17:55:31.662Z,52.21
2022-11-26T17:57:59.458Z,52.80
2022-11-26T18:00:28.926Z,53.45
2022-11-26T18:02:56.577Z,52.78
2022-11-26T18:05:24.414Z,52.49
2022-11-26T18:07:51.929Z,52.50
2022-11-26T18:10:20.769Z,52.75
2022-11-26T18:12:49.111Z,53.11
2022-11-26T18:15:20.348Z,53.07
2022-11-26T18:17:52.600Z,53.24
2022-11-26T18:20:22.208Z,53.15
2022-11-26T18:22:54.329Z,53.00
2022-11-26T18:25:21.627Z,53.43
2022-11-26T18:27:49.072Z,53.17
2022-11-26T18:30:17.284Z,53.54
2022-11-26T18:32:44.379Z,53.65
2022-11-26T18:35:11.847Z,53.41
2022-11-26T18:37:40.209Z,53.68
2022-11-26T18:40:10.509Z,53.73
2022-11-26T18:42:38.351Z,54.15
2022-11-26T18:45:09.299Z,53.73
2022-11-26T18:47:36.439Z,54.07
2022-11-26T18:50:04.290Z,54.13
2022-11-26T18:52:31.275Z,54.63
2022-11-26T18:54:58.340Z,54.72
2022-11-26T18:57:25.324Z,54.24
2022-11-26T18:59:52.359Z,54.33
2022-11-26T19:02:19.706Z,54.87
2022-11-26T19:04:46.744Z,54.77
2022-11-26T19:07:14.393Z,54.56
2022-11-26T19:09:42.526Z,54.66
2022-11-26T19:12:12.180Z,54.66
2022-11-26T19:14:39.218Z,54.83
2022-11-26T19:17:06.408Z,55.65
2022-11-26T19:19:33.648Z,55.49
2022-11-26T19:22:01.667Z,55.51
2022-11-26T19:24:30.390Z,55.12
2022-11-26T19:26:57.722Z,55.20
2022-11-26T19:29:24.788Z,55.28
2022-11-26T19:31:51.843Z,55.54
2022-11-26T19:34:18.842Z,55.28
2022-11-26T19:36:48.779Z,55.43
2022-11-26T19:39:17.044Z,55.36
2022-11-26T19:41:44.272Z,55.55
2022-11-26T19:44:11.575Z,55.49
2022-11-26T19:46:41.504Z,55.05
2022-11-26T19:49:12.031Z,54.85
2022-11-26T19:51:39.445Z,55.31
2022-11-26T19:54:07.062Z,55.22
2022-11-26T19:56:34.278Z,55.74
2022-11-26T19:59:02.489Z,55.38
2022-11-26T20:01:30.913Z,55.47
2022-11-26T20:03:59.971Z,56.89
2022-11-26T20:06:28.316Z,55.86
2022-11-26T20:08:55.521Z,56.27
2022-11-26T20:11:23.271Z,56.17
2022-11-26T20:13:50.608Z,56.43
2022-11-26T20:16:20.416Z,56.73
2022-11-26T20:18:48.202Z,56.46
2022-11-26T20:21:20.568Z,56.60
2022-11-26T20:23:49.136Z,56.63
2022-11-26T20:26:19.437Z,56.47
2022-11-26T20:28:46.628Z,56.72
2022-11-26T20:31:18.269Z,57.26
2022-11-26T20:33:49.313Z,56.98
2022-11-26T20:36:18.457Z,56.92
2022-11-26T20:38:45.525Z,57.16
2022-11-26T20:41:16.228Z,56.31
2022-11-26T20:43:43.589Z,56.60
2022-11-26T20:46:12.955Z,56.90
2022-11-26T20:48:41.810Z,57.14
2022-11-26T20:51:11.081Z,57.53
2022-11-26T20:53:38.809Z,57.16
2022-11-26T20:56:06.868Z,57.42
2022-11-26T20:58:34.676Z,58.50
2022-11-26T21:01:02.123Z,58.03
2022-11-26T21:03:30.062Z,57.41
2022-11-26T21:06:02.279Z,58.18
2022-11-26T21:08:29.377Z,58.38
2022-11-26T21:10:56.343Z,58.15
2022-11-26T21:13:23.295Z,58.27
2022-11-26T21:15:50.480Z,58.77
2022-11-26T21:18:17.561Z,58.36
2022-11-26T21:20:44.964Z,58.35
2022-11-26T21:23:13.201Z,58.29
2022-11-26T21:25:41.251Z,58.14
2022-11-26T21:28:09.392Z,57.94
2022-11-26T21:30:37.131Z,57.77
2022-11-26T21:33:09.240Z,57.99
2022-11-26T21:35:37.490Z,58.37
2022-11-26T21:38:06.060Z,58.24
2022-11-26T21:40:33.827Z,57.95
2022-11-26T21:43:00.906Z,58.07
2022-11-26T21:45:28.006Z,58.14
2022-11-26T21:47:55.019Z,57.92
2022-11-26T21:50:22.318Z,57.98
2022-11-26T21:52:49.455Z,57.93
2022-11-26T21:55:16.479Z,58.04
2022-11-26T21:57:43.420Z,57.49
2022-11-26T22:00:10.886Z,57.59
2022-11-26T22:02:37.874Z,58.01
2022-11-26T22:05:05.111Z,57.71
2022-11-26T22:07:32.407Z,57.87
2022-11-26T22:09:59.641Z,57.68
2022-11-26T22:12:26.622Z,57.41
2022-11-26T22:14:53.610Z,57.74
2022-11-26T22:17:20.669Z,58.24
2022-11-26T22:19:47.580Z,59.36
2022-11-26T22:22:14.719Z,59.18
2022-11-26T22:24:41.691Z,59.50
2022-11-26T22:27:08.587Z,59.01
2022-11-26T22:29:35.592Z,59.20
2022-11-26T22:32:02.522Z,59.21
2022-11-26T22:34:29.627Z,59.29
2022-11-26T22:36:56.616Z,58.78
2022-11-26T22:39:23.568Z,58.77
2022-11-26T22:41:50.490Z,59.11
2022-11-26T22:44:17.970Z,58.91
2022-11-26T22:46:45.458Z,59.43
2022-11-26T22:49:14.393Z,59.11
2022-11-26T22:51:41.862Z,59.15
2022-11-26T22:54:12.176Z,58.47
2022-11-26T22:56:39.599Z,58.68
2022-11-26T22:59:08.449Z,58.85
2022-11-26T23:01:36.769Z,58.93
2022-11-26T23:04:05.484Z,59.06
2022-11-26T23:06:34.371Z,58.87
2022-11-26T23:09:03.592Z,58.83
2022-11-26T23:11:37.550Z,58.92
2022-11-26T23:14:07.618Z,59.01
2022-11-26T23:16:35.784Z,58.95
2022-11-26T23:19:03.710Z,58.72
2022-11-26T23:21:36.299Z,58.67
2022-11-26T23:24:03.420Z,58.44
2022-11-26T23:26:33.738Z,58.45
2022-11-26T23:29:02.378Z,58.50
2022-11-26T23:31:31.719Z,58.14
2022-11-26T23:33:59.670Z,58.06
2022-11-26T23:36:27.987Z,57.71
2022-11-26T23:38:55.833Z,57.67
2022-11-26T23:41:23.267Z,57.35
2022-11-26T23:43:50.249Z,57.37
2022-11-26T23:46:18.910Z,57.56
2022-11-26T23:48:46.318Z,57.48
2022-11-26T23:51:17.073Z,57.61
2022-11-26T23:53:45.840Z,57.92
2022-11-26T23:56:15.951Z,57.95
2022-11-26T23:58:43.395Z,57.82
